Time;durP1;ratioP1;P1;durP2;ratioP2;P2;SDS_P1;SDS_P2;PMS_P1;PMS_P2;Temp;Humidity;BMP_temperature;BMP_pressure;BME280_temperature;BME280_humidity;BME280_pressure;Samples;Min_cycle;Max_cycle;Signal;HPM_P1;HPM_P2
2021/07/09 00:01:19;;;;;;;14.35;8.40;;;;;;;20.81;100.00;97950.91;5000400;28;20045;-79
2021/07/09 00:03:45;;;;;;;11.98;7.70;;;;;;;20.82;100.00;97950.75;4969535;28;20030;-80
2021/07/09 00:06:11;;;;;;;11.07;7.35;;;;;;;20.88;100.00;97944.72;5010315;28;20069;-79
2021/07/09 00:08:36;;;;;;;9.23;7.68;;;;;;;20.87;100.00;97943.00;4997892;28;20034;-80
2021/07/09 00:11:02;;;;;;;9.73;7.82;;;;;;;20.85;100.00;97934.16;5001226;28;20084;-80
2021/07/09 00:13:28;;;;;;;10.73;7.50;;;;;;;20.88;100.00;97938.44;4978005;28;20034;-81
2021/07/09 00:15:54;;;;;;;10.45;7.78;;;;;;;20.91;100.00;97944.44;4971692;28;20034;-81
2021/07/09 00:18:20;;;;;;;8.45;7.18;;;;;;;20.94;100.00;97951.44;4981029;28;20041;-80
2021/07/09 00:20:45;;;;;;;15.00;7.82;;;;;;;20.89;100.00;97946.41;4997743;28;20034;-79
2021/07/09 00:23:11;;;;;;;11.98;8.25;;;;;;;20.84;100.00;97948.75;4981299;28;20038;-81
2021/07/09 00:25:37;;;;;;;11.20;8.65;;;;;;;20.82;100.00;97949.91;4977751;28;20034;-81
2021/07/09 00:28:03;;;;;;;21.80;10.02;;;;;;;20.84;100.00;97948.75;4995281;28;20129;-81
2021/07/09 00:30:29;;;;;;;11.32;9.70;;;;;;;20.80;100.00;97958.19;4995248;28;20042;-80
2021/07/09 00:32:55;;;;;;;10.85;9.48;;;;;;;20.75;100.00;97944.19;4968480;28;20041;-80
2021/07/09 00:35:21;;;;;;;16.48;10.25;;;;;;;20.70;100.00;97949.22;4977799;28;20038;-80
2021/07/09 00:37:46;;;;;;;13.50;10.60;;;;;;;20.61;100.00;97946.53;4969674;28;20113;-80
2021/07/09 00:40:12;;;;;;;19.42;10.00;;;;;;;20.55;100.00;97954.25;4961485;28;20049;-81
2021/07/09 00:42:38;;;;;;;22.00;10.75;;;;;;;20.52;100.00;97954.56;4993676;28;20080;-81
2021/07/09 00:45:05;;;;;;;17.20;9.82;;;;;;;20.46;100.00;97948.84;4977688;28;20485;-81
2021/07/09 00:47:31;;;;;;;19.55;10.40;;;;;;;20.36;100.00;97942.59;4969131;28;20117;-80
2021/07/09 00:49:56;;;;;;;13.68;9.82;;;;;;;20.25;100.00;97945.41;4977626;28;20467;-80
2021/07/09 00:52:22;;;;;;;13.20;10.50;;;;;;;20.15;100.00;97939.16;5002879;28;20088;-80
2021/07/09 00:54:48;;;;;;;22.10;11.77;;;;;;;19.96;100.00;97942.75;5014007;28;20030;-81
2021/07/09 00:57:14;;;;;;;21.58;12.35;;;;;;;19.86;100.00;97942.75;4980455;28;20041;-80
2021/07/09 00:59:40;;;;;;;18.58;12.30;;;;;;;19.75;100.00;97945.59;4969097;28;20092;-80
2021/07/09 01:02:06;;;;;;;17.73;11.35;;;;;;;19.67;100.00;97937.31;4977537;28;20482;-80
2021/07/09 01:04:32;;;;;;;21.80;11.98;;;;;;;19.52;100.00;97946.88;4977140;28;20117;-80
2021/07/09 01:06:57;;;;;;;17.98;12.00;;;;;;;19.48;100.00;97945.41;4977403;28;20037;-80
2021/07/09 01:09:23;;;;;;;16.42;11.45;;;;;;;19.48;100.00;97940.84;4993372;28;20030;-80
2021/07/09 01:11:50;;;;;;;17.17;12.18;;;;;;;19.51;100.00;97936.13;4961013;28;20042;-80
2021/07/09 01:14:20;;;;;;;19.20;11.65;;;;;;;19.55;100.00;97940.28;4972589;28;20512;-80
2021/07/09 01:16:46;;;;;;;17.13;12.98;;;;;;;19.54;100.00;97946.72;4993042;28;20029;-80
2021/07/09 01:19:15;;;;;;;14.80;12.20;;;;;;;19.50;100.00;97948.00;4971773;28;20030;-79
2021/07/09 01:21:42;;;;;;;15.77;11.82;;;;;;;19.51;100.00;97939.72;4994810;28;20042;-79
2021/07/09 01:24:09;;;;;;;14.90;11.88;;;;;;;19.52;100.00;97929.72;4996655;28;20034;-78
2021/07/09 01:26:35;;;;;;;20.95;11.55;;;;;;;19.58;100.00;97937.28;4963948;28;20040;-79
2021/07/09 01:29:03;;;;;;;15.23;11.65;;;;;;;19.60;100.00;97927.16;5014082;28;20069;-79
2021/07/09 01:31:28;;;;;;;22.33;12.13;;;;;;;19.56;100.00;97936.59;4996456;28;20044;-80
2021/07/09 01:33:54;;;;;;;14.82;11.73;;;;;;;19.59;100.00;97920.03;4996378;28;20033;-79
2021/07/09 01:36:21;;;;;;;14.65;10.52;;;;;;;19.61;100.00;97927.00;5013801;28;20026;-80
2021/07/09 01:38:47;;;;;;;18.67;11.13;;;;;;;19.59;100.00;97930.88;4996123;28;20088;-79
2021/07/09 01:41:13;;;;;;;20.77;11.38;;;;;;;19.56;100.00;97925.72;4982635;28;20030;-80
2021/07/09 01:43:39;;;;;;;14.95;10.82;;;;;;;19.55;100.00;97924.00;4976634;28;20129;-81
2021/07/09 01:46:04;;;;;;;14.85;11.13;;;;;;;19.51;100.00;97922.56;4976680;28;20034;-80
2021/07/09 01:48:30;;;;;;;20.35;11.52;;;;;;;19.53;100.00;97935.03;4976986;28;20022;-80
2021/07/09 01:50:56;;;;;;;14.27;10.48;;;;;;;19.55;100.00;97919.44;4976260;28;20070;-80
2021/07/09 01:53:22;;;;;;;20.40;11.80;;;;;;;19.56;100.00;97921.16;5000373;28;20108;-80
2021/07/09 01:55:47;;;;;;;15.57;11.02;;;;;;;19.55;100.00;97933.00;4961861;28;20026;-79
2021/07/09 01:58:13;;;;;;;13.48;10.85;;;;;;;19.52;100.00;97927.88;4982027;28;20029;-79
2021/07/09 02:00:38;;;;;;;17.42;11.80;;;;;;;19.49;100.00;97930.88;4976355;28;20069;-79
2021/07/09 02:03:04;;;;;;;13.73;10.98;;;;;;;19.48;100.00;97930.00;4976690;28;20066;-82
2021/07/09 02:05:30;;;;;;;15.60;10.93;;;;;;;19.51;100.00;97933.41;4972898;28;20483;-80
2021/07/09 02:07:56;;;;;;;13.88;10.88;;;;;;;19.49;100.00;97925.44;4985088;28;20038;-80
2021/07/09 02:10:31;;;;;;;17.08;11.00;;;;;;;19.55;100.00;97935.72;4976462;28;20467;-80
2021/07/09 02:12:57;;;;;;;13.48;11.00;;;;;;;19.48;100.00;97929.13;4995057;28;20044;-80
2021/07/09 02:15:26;;;;;;;16.13;11.02;;;;;;;19.51;100.00;97922.56;4965118;28;20486;-79
2021/07/09 02:17:52;;;;;;;18.13;11.48;;;;;;;19.52;100.00;97921.56;4994148;28;20033;-80
2021/07/09 02:20:20;;;;;;;15.77;10.70;;;;;;;19.53;100.00;97932.31;4995358;28;20037;-80
2021/07/09 02:22:46;;;;;;;14.98;10.80;;;;;;;19.51;100.00;97936.13;4995461;28;20033;-79
2021/07/09 02:25:13;;;;;;;12.82;9.98;;;;;;;19.47;100.00;97933.69;4966815;28;20410;-80
2021/07/09 02:27:40;;;;;;;15.35;10.60;;;;;;;19.42;100.00;97932.41;4975676;28;20030;-78
2021/07/09 02:30:11;;;;;;;17.55;11.38;;;;;;;19.32;100.00;97931.50;4959838;28;20026;-80
2021/07/09 02:32:38;;;;;;;14.02;11.02;;;;;;;19.26;100.00;97930.22;4975924;28;20025;-80
2021/07/09 02:35:05;;;;;;;16.42;10.48;;;;;;;19.20;100.00;97924.47;4975649;28;20375;-80
2021/07/09 02:37:31;;;;;;;16.65;9.80;;;;;;;19.30;100.00;97931.66;4959554;28;20022;-80
2021/07/09 02:39:57;;;;;;;20.38;10.88;;;;;;;19.33;100.00;97925.09;4975407;28;20022;-79
2021/07/09 02:42:22;;;;;;;13.50;10.27;;;;;;;19.35;100.00;97933.94;4970127;28;20486;-80
2021/07/09 02:44:48;;;;;;;13.85;10.07;;;;;;;19.32;100.00;97937.78;4992636;28;20077;-80
2021/07/09 02:47:14;;;;;;;22.30;10.82;;;;;;;19.32;100.00;97932.38;4988234;28;20089;-78
2021/07/09 02:49:39;;;;;;;19.27;11.70;;;;;;;19.28;100.00;97922.81;4995137;28;20080;-79
2021/07/09 02:52:06;;;;;;;20.20;11.70;;;;;;;19.34;100.00;97935.81;4975355;28;20104;-79
2021/07/09 02:54:31;;;;;;;25.42;14.90;;;;;;;19.33;100.00;97938.66;4992812;28;20054;-81
2021/07/09 02:56:57;;;;;;;38.95;17.13;;;;;;;19.32;100.00;97940.50;4977190;28;20066;-80
2021/07/09 02:59:23;;;;;;;50.92;18.48;;;;;;;19.34;100.00;97953.94;4981088;28;20041;-80
2021/07/09 03:01:48;;;;;;;37.38;16.65;;;;;;;19.24;100.00;97950.34;4975367;28;20470;-79
2021/07/09 03:04:14;;;;;;;38.22;14.43;;;;;;;19.24;100.00;97953.91;4967068;28;20475;-80
2021/07/09 03:06:41;;;;;;;17.65;11.75;;;;;;;19.13;100.00;97958.59;4990806;28;20029;-80
2021/07/09 03:09:07;;;;;;;18.52;11.07;;;;;;;19.14;100.00;97957.59;4975351;28;20048;-80
2021/07/09 03:11:34;;;;;;;20.60;11.93;;;;;;;19.14;100.00;97957.59;4975284;28;20501;-79
2021/07/09 03:14:00;;;;;;;18.90;11.60;;;;;;;19.16;100.00;97950.19;4974816;28;20042;-79
2021/07/09 03:16:25;;;;;;;51.58;12.57;;;;;;;19.14;100.00;97946.72;4980455;28;20080;-80
2021/07/09 03:18:51;;;;;;;15.98;11.02;;;;;;;19.12;100.00;97956.88;4994018;28;20037;-78
2021/07/09 03:21:17;;;;;;;15.30;10.63;;;;;;;19.08;100.00;97952.72;4978272;28;20460;-80
2021/07/09 03:23:42;;;;;;;20.05;10.82;;;;;;;19.11;100.00;97945.16;5012103;28;20412;-80
2021/07/09 03:26:08;;;;;;;14.27;10.48;;;;;;;19.08;100.00;97950.84;4994077;28;20040;-80
2021/07/09 03:28:34;;;;;;;14.90;9.45;;;;;;;19.04;100.00;97941.28;4993981;28;20506;-80
2021/07/09 03:31:00;;;;;;;17.55;10.07;;;;;;;19.01;100.00;97938.00;4984517;28;20041;-79
2021/07/09 03:33:25;;;;;;;14.35;10.25;;;;;;;19.01;100.00;97944.25;4979063;28;20108;-80
2021/07/09 03:35:52;;;;;;;15.23;10.05;;;;;;;19.07;100.00;97942.88;4961582;28;20034;-81
2021/07/09 03:38:21;;;;;;;19.45;10.23;;;;;;;19.16;100.00;97940.19;4967334;28;20023;-80
2021/07/09 03:40:47;;;;;;;17.55;10.93;;;;;;;19.24;100.00;97942.19;4992378;28;20092;-79
2021/07/09 03:43:13;;;;;;;20.40;10.15;;;;;;;19.25;100.00;97938.50;4974506;28;20034;-79
2021/07/09 03:45:38;;;;;;;15.00;10.88;;;;;;;19.31;100.00;97943.38;4958161;28;20022;-79
2021/07/09 03:48:05;;;;;;;17.95;11.00;;;;;;;19.40;100.00;97948.84;4974809;28;20054;-80
2021/07/09 03:50:31;;;;;;;30.48;11.20;;;;;;;19.49;100.00;97955.28;4974961;28;20482;-80
2021/07/09 03:52:57;;;;;;;23.95;11.02;;;;;;;19.55;100.00;97941.16;4958449;28;20032;-78
2021/07/09 03:55:23;;;;;;;19.70;11.52;;;;;;;19.61;100.00;97948.72;4992203;28;20031;-79
2021/07/09 03:57:48;;;;;;;15.68;11.75;;;;;;;19.66;100.00;97946.44;4958461;28;20026;-78
2021/07/09 04:00:14;;;;;;;25.60;12.25;;;;;;;19.75;100.00;97956.44;4973769;28;20487;-78
2021/07/09 04:02:41;;;;;;;19.80;12.65;;;;;;;19.81;100.00;97953.16;4969826;28;20494;-79
2021/07/09 04:05:07;;;;;;;18.55;11.57;;;;;;;19.89;100.00;97950.63;4974348;28;20061;-81
2021/07/09 04:07:33;;;;;;;24.42;12.05;;;;;;;20.02;100.00;97948.47;4975130;28;20036;-78
2021/07/09 04:09:59;;;;;;;29.92;13.00;;;;;;;20.08;100.00;97948.88;4958601;28;20458;-80
2021/07/09 04:12:24;;;;;;;20.60;12.48;;;;;;;20.21;100.00;97954.88;4989932;28;20036;-80
2021/07/09 04:14:50;;;;;;;18.83;12.43;;;;;;;20.22;100.00;97951.16;4957939;28;20057;-80
2021/07/09 04:17:15;;;;;;;21.33;12.70;;;;;;;20.39;100.00;97953.16;4969814;28;20064;-80
2021/07/09 04:19:41;;;;;;;28.02;13.77;;;;;;;20.49;100.00;97949.41;4967949;28;20447;-79
2021/07/09 04:22:07;;;;;;;22.48;12.88;;;;;;;20.60;100.00;97956.56;4957897;28;20035;-79
2021/07/09 04:24:33;;;;;;;26.67;13.25;;;;;;;20.66;100.00;97961.41;4974295;28;20088;-79
2021/07/09 04:26:59;;;;;;;17.75;12.07;;;;;;;20.69;100.00;97961.09;4973993;28;20490;-80
2021/07/09 04:29:24;;;;;;;19.83;12.35;;;;;;;20.78;100.00;97965.66;4973810;28;20038;-80
2021/07/09 04:31:50;;;;;;;23.20;12.48;;;;;;;20.82;100.00;97963.50;4969614;28;20439;-80
2021/07/09 04:34:15;;;;;;;22.02;13.60;;;;;;;20.89;100.00;97967.31;4992319;28;20030;-80
2021/07/09 04:36:42;;;;;;;19.33;12.00;;;;;;;20.97;100.00;97965.59;5005400;28;20101;-80
2021/07/09 04:39:08;;;;;;;21.55;12.75;;;;;;;20.90;100.00;97956.31;4973772;28;20027;-79
2021/07/09 04:41:34;;;;;;;22.42;13.55;;;;;;;20.97;100.00;97964.72;4957854;28;20439;-80
2021/07/09 04:43:59;;;;;;;17.02;13.45;;;;;;;20.90;100.00;97959.03;4958571;28;20061;-79
2021/07/09 04:46:25;;;;;;;19.27;13.65;;;;;;;21.04;100.00;97965.84;4988944;28;20037;-79
2021/07/09 04:48:50;;;;;;;19.42;13.70;;;;;;;21.12;100.00;97965.97;4965964;28;20045;-78
2021/07/09 04:51:16;;;;;;;23.52;19.45;;;;;;;21.16;100.00;97952.94;4995594;28;20042;-80
2021/07/09 04:53:42;;;;;;;35.55;20.25;;;;;;;21.32;100.00;97947.69;4975283;28;20113;-79
2021/07/09 04:56:07;;;;;;;26.67;18.33;;;;;;;22.39;96.30;97954.91;4977154;28;20045;-79
2021/07/09 04:58:33;;;;;;;25.92;21.52;;;;;;;23.70;87.96;97959.06;5007293;28;20053;-79
2021/07/09 05:00:58;;;;;;;36.17;24.73;;;;;;;25.05;77.44;97963.03;4996829;28;20037;-80
2021/07/09 05:03:24;;;;;;;22.10;19.63;;;;;;;25.84;73.07;97960.19;4996882;28;20026;-80
2021/07/09 05:05:50;;;;;;;24.67;17.17;;;;;;;27.04;67.56;97968.47;4996844;28;20382;-80
2021/07/09 05:08:15;;;;;;;24.55;13.88;;;;;;;28.86;59.84;97970.91;4996567;28;20026;-79
2021/07/09 05:10:41;;;;;;;18.65;11.27;;;;;;;29.99;54.82;97979.69;4967379;28;20033;-80
2021/07/09 05:13:07;;;;;;;15.15;9.10;;;;;;;30.30;53.22;97979.13;4977761;28;20441;-84
2021/07/09 05:15:33;;;;;;;13.95;9.90;;;;;;;31.16;50.90;97980.13;4976961;28;20030;-83
2021/07/09 05:17:59;;;;;;;20.92;9.65;;;;;;;32.64;46.94;97986.41;4992877;28;20120;-83
2021/07/09 05:20:25;;;;;;;17.23;8.57;;;;;;;33.70;43.62;97989.97;4980966;28;20161;-83
2021/07/09 05:22:51;;;;;;;16.25;8.07;;;;;;;33.89;42.61;97978.84;4977142;28;20044;-83
2021/07/09 05:25:16;;;;;;;18.85;8.65;;;;;;;34.71;40.98;97987.38;4963827;28;20037;-84
2021/07/09 05:27:42;;;;;;;16.90;9.68;;;;;;;35.30;39.92;97991.97;4972446;28;20505;-84
2021/07/09 05:30:09;;;;;;;13.10;8.82;;;;;;;36.24;37.71;97982.44;4974456;28;20089;-83
2021/07/09 05:32:34;;;;;;;26.67;9.68;;;;;;;37.07;36.34;97984.59;4976915;28;20030;-83
2021/07/09 05:35:00;;;;;;;19.05;8.25;;;;;;;37.54;35.45;97985.13;4972649;28;20483;-83
2021/07/09 05:37:26;;;;;;;22.10;8.02;;;;;;;38.06;34.49;97982.81;4995402;28;20072;-83
2021/07/09 05:39:52;;;;;;;16.85;9.60;;;;;;;37.80;34.60;97989.13;4968784;28;20023;-83
2021/07/09 05:42:37;;;;;;;9.38;7.88;;;;;;;36.61;35.64;97976.50;4962481;28;20129;-82
2021/07/09 05:45:03;;;;;;;11.02;7.90;;;;;;;37.04;35.30;97971.16;4976557;28;20118;-84
2021/07/09 05:47:29;;;;;;;13.73;8.20;;;;;;;38.01;34.47;97970.72;4968313;28;20416;-83
2021/07/09 05:49:54;;;;;;;13.57;7.40;;;;;;;38.70;32.97;97957.84;4971329;28;20081;-84
2021/07/09 05:52:21;;;;;;;14.15;7.22;;;;;;;38.93;32.60;97965.94;4962203;28;20450;-84
2021/07/09 05:54:47;;;;;;;14.63;7.60;;;;;;;37.43;34.40;97970.13;4961041;28;20033;-83
2021/07/09 05:57:12;;;;;;;14.40;7.65;;;;;;;37.41;34.60;97971.47;4972577;28;20038;-82
2021/07/09 05:59:38;;;;;;;15.48;8.18;;;;;;;38.74;32.90;97965.44;4977030;28;20022;-83
2021/07/09 06:02:04;;;;;;;14.05;7.30;;;;;;;39.68;30.97;97960.13;4968747;28;20498;-84
2021/07/09 06:04:30;;;;;;;31.15;8.00;;;;;;;39.95;30.54;97966.44;4979799;28;20042;-84
2021/07/09 06:06:55;;;;;;;13.02;7.10;;;;;;;39.15;31.49;97971.44;4996131;28;20067;-83
2021/07/09 06:09:21;;;;;;;8.93;7.35;;;;;;;39.11;31.97;97971.13;4970545;28;20041;-83
2021/07/09 06:11:47;;;;;;;12.07;7.47;;;;;;;39.16;31.25;97970.34;4969816;28;20030;-84
2021/07/09 06:14:12;;;;;;;10.27;7.80;;;;;;;36.99;34.14;97956.28;4992690;28;20034;-83
2021/07/09 06:16:38;;;;;;;11.07;7.07;;;;;;;37.40;34.53;97964.22;4979227;28;20112;-84
2021/07/09 06:19:03;;;;;;;10.50;6.70;;;;;;;38.14;33.31;97961.94;4995737;28;20061;-84
2021/07/09 06:21:29;;;;;;;9.93;7.00;;;;;;;37.76;33.86;97963.66;4969001;28;20096;-83
2021/07/09 06:23:55;;;;;;;31.50;8.02;;;;;;;37.65;34.04;97956.25;4967958;28;20113;-83
2021/07/09 06:26:21;;;;;;;9.40;6.20;;;;;;;39.16;32.33;97959.13;4992776;28;20030;-84
2021/07/09 06:28:47;;;;;;;30.50;7.13;;;;;;;39.92;30.59;97955.78;4967707;28;20075;-83
2021/07/09 06:31:13;;;;;;;16.88;6.90;;;;;;;40.53;30.14;97953.25;4975834;28;20046;-83
2021/07/09 06:33:38;;;;;;;15.18;6.53;;;;;;;40.11;29.83;97958.13;4978503;28;20025;-84
2021/07/09 06:36:04;;;;;;;13.45;6.30;;;;;;;39.19;31.21;97961.41;4988772;28;20509;-83
2021/07/09 06:38:30;;;;;;;7.22;5.65;;;;;;;40.46;29.64;97956.28;4973887;28;20398;-83
2021/07/09 06:40:56;;;;;;;8.40;5.78;;;;;;;39.80;30.15;97957.09;4967203;28;20045;-84
2021/07/09 06:43:21;;;;;;;12.80;5.35;;;;;;;39.88;30.61;97950.97;4975688;28;20029;-84
2021/07/09 06:45:47;;;;;;;6.65;5.07;;;;;;;39.90;29.46;97941.16;4966851;28;20486;-83
2021/07/09 06:48:12;;;;;;;11.52;5.50;;;;;;;40.46;29.44;97944.19;4990663;28;20413;-83
2021/07/09 06:50:38;;;;;;;17.58;7.38;;;;;;;41.25;28.50;97943.78;4994436;28;20038;-84
2021/07/09 06:53:04;;;;;;;11.13;5.97;;;;;;;41.06;28.26;97949.13;4980695;28;20043;-83
2021/07/09 06:55:30;;;;;;;17.65;6.72;;;;;;;39.18;30.20;97949.34;4958751;28;20045;-83
2021/07/09 06:57:56;;;;;;;9.57;7.22;;;;;;;38.19;31.73;97946.06;4972632;28;20524;-84
2021/07/09 07:00:21;;;;;;;9.50;6.93;;;;;;;39.22;31.69;97935.66;4978595;28;20034;-83
2021/07/09 07:02:48;;;;;;;12.02;5.60;;;;;;;39.56;30.27;97934.25;4994971;28;20021;-84
2021/07/09 07:05:15;;;;;;;12.82;5.90;;;;;;;40.72;29.38;97937.56;4978345;28;20033;-83
2021/07/09 07:07:41;;;;;;;6.72;5.75;;;;;;;40.53;29.66;97933.59;4978391;28;20030;-83
2021/07/09 07:10:07;;;;;;;12.88;5.70;;;;;;;41.87;27.66;97941.44;4978358;28;20044;-84
2021/07/09 07:12:33;;;;;;;7.07;5.50;;;;;;;41.74;27.57;97928.00;4978174;28;20033;-83
2021/07/09 07:14:59;;;;;;;5.95;5.28;;;;;;;42.01;27.16;97934.09;4994699;28;20033;-84
2021/07/09 07:17:25;;;;;;;8.20;5.13;;;;;;;42.59;27.47;97935.25;4977778;28;20030;-83
2021/07/09 07:19:50;;;;;;;9.65;5.45;;;;;;;41.55;27.65;97922.13;4974659;28;20026;-84
2021/07/09 07:22:16;;;;;;;8.75;5.18;;;;;;;40.90;28.61;97922.13;4970368;28;20045;-84
2021/07/09 07:24:42;;;;;;;9.63;4.97;;;;;;;39.67;29.77;97929.56;4985230;28;20115;-83
2021/07/09 07:27:07;;;;;;;13.02;5.43;;;;;;;40.11;29.99;97935.69;4967328;28;20483;-84
2021/07/09 07:29:33;;;;;;;8.30;5.18;;;;;;;41.19;28.95;97930.88;4985111;28;20537;-83
2021/07/09 07:31:59;;;;;;;23.92;5.68;;;;;;;41.80;28.76;97929.69;4979716;28;20038;-84
2021/07/09 07:34:24;;;;;;;18.70;5.30;;;;;;;42.85;27.41;97927.47;4962297;28;20110;-84
2021/07/09 07:36:50;;;;;;;20.50;5.25;;;;;;;42.57;26.70;97902.88;4961928;28;20087;-84
2021/07/09 07:39:16;;;;;;;17.13;4.55;;;;;;;43.25;25.86;97917.03;4974811;28;20089;-83
2021/07/09 07:41:42;;;;;;;12.40;4.63;;;;;;;43.78;26.13;97924.41;4959982;28;20038;-84
2021/07/09 07:44:07;;;;;;;9.07;3.40;;;;;;;43.66;24.93;97921.13;4975078;28;20478;-84
2021/07/09 07:46:33;;;;;;;12.00;4.65;;;;;;;40.30;29.27;97911.66;4971807;28;20100;-83
2021/07/09 07:48:59;;;;;;;17.80;4.20;;;;;;;40.69;28.05;97909.22;4986886;28;20084;-83
2021/07/09 07:51:25;;;;;;;10.98;4.15;;;;;;;41.34;27.00;97919.63;4970146;28;20537;-84
2021/07/09 07:53:52;;;;;;;8.63;4.82;;;;;;;41.09;28.01;97914.88;4974070;28;20033;-84
2021/07/09 07:56:18;;;;;;;8.93;4.53;;;;;;;40.94;28.03;97912.06;4969803;28;20034;-83
2021/07/09 07:58:44;;;;;;;9.05;4.25;;;;;;;40.94;28.33;97910.09;4967567;28;20367;-83
2021/07/09 08:01:10;;;;;;;11.73;4.35;;;;;;;40.54;27.95;97907.22;4975038;28;20049;-83
2021/07/09 08:03:36;;;;;;;12.48;4.38;;;;;;;41.66;27.62;97903.25;4974787;28;20617;-82
2021/07/09 08:06:03;;;;;;;7.65;4.28;;;;;;;41.94;26.85;97907.41;4958505;28;20037;-84
2021/07/09 08:08:29;;;;;;;8.00;4.47;;;;;;;41.92;27.91;97910.53;4966551;28;20022;-83
2021/07/09 08:10:54;;;;;;;18.25;4.80;;;;;;;42.18;25.84;97891.56;4977678;28;20037;-84
2021/07/09 08:13:20;;;;;;;14.20;4.22;;;;;;;42.87;25.07;97885.78;4993845;28;20057;-83
2021/07/09 08:15:45;;;;;;;8.30;4.10;;;;;;;42.49;25.31;97873.34;4977769;28;20030;-83
2021/07/09 08:18:11;;;;;;;13.80;4.45;;;;;;;43.18;25.95;97895.66;4964381;28;20022;-83
2021/07/09 08:20:39;;;;;;;18.70;4.28;;;;;;;43.65;24.13;97888.44;4978028;28;20413;-83
2021/07/09 08:23:04;;;;;;;13.88;4.18;;;;;;;43.30;25.38;97888.78;4997577;28;20022;-83
2021/07/09 08:25:30;;;;;;;6.90;3.80;;;;;;;43.15;23.76;97870.91;4981482;28;20026;-83
2021/07/09 08:27:55;;;;;;;8.02;3.92;;;;;;;44.00;23.16;97881.53;4997376;28;20049;-83
2021/07/09 08:30:21;;;;;;;7.78;4.00;;;;;;;43.30;25.22;97883.16;4983310;28;20037;-83
2021/07/09 08:32:46;;;;;;;8.15;4.13;;;;;;;43.80;23.85;97882.66;4995252;28;20065;-83
2021/07/09 08:35:12;;;;;;;8.75;3.97;;;;;;;44.96;22.17;97861.22;4962035;28;20018;-83
2021/07/09 08:37:38;;;;;;;12.82;3.90;;;;;;;44.45;23.34;97871.63;4975263;28;20083;-83
2021/07/09 08:40:05;;;;;;;8.38;3.85;;;;;;;44.07;23.10;97862.25;4970376;28;20533;-83
2021/07/09 08:42:31;;;;;;;6.28;3.85;;;;;;;43.80;23.46;97865.72;4977788;28;20113;-83
2021/07/09 08:44:56;;;;;;;7.75;4.22;;;;;;;43.68;24.00;97870.91;4988534;28;20125;-82
2021/07/09 08:47:27;;;;;;;4.53;3.75;;;;;;;42.99;24.04;97865.69;4981104;28;20028;-83
2021/07/09 08:49:54;;;;;;;6.90;3.88;;;;;;;42.51;25.25;97862.66;4987069;28;20433;-83
2021/07/09 08:52:19;;;;;;;6.88;3.92;;;;;;;40.93;26.48;97855.06;4971589;28;20121;-84
2021/07/09 08:54:45;;;;;;;4.75;3.80;;;;;;;40.64;26.97;97855.91;4980531;28;20117;-82
2021/07/09 08:57:10;;;;;;;9.35;3.85;;;;;;;41.18;26.18;97850.53;4980901;28;20029;-83
2021/07/09 08:59:36;;;;;;;11.43;4.25;;;;;;;41.88;25.97;97861.59;4981391;28;20109;-83
2021/07/09 09:02:03;;;;;;;8.68;4.60;;;;;;;43.15;24.79;97859.63;4977503;28;20113;-83
2021/07/09 09:04:34;;;;;;;6.00;3.80;;;;;;;43.19;24.28;97855.06;4977983;28;20053;-84
2021/07/09 09:07:04;;;;;;;7.82;4.00;;;;;;;43.59;23.52;97848.16;4961124;28;20034;-84
2021/07/09 09:09:31;;;;;;;8.30;4.05;;;;;;;42.15;25.40;97839.50;4977637;28;20028;-84
2021/07/09 09:12:16;;;;;;;7.78;3.80;;;;;;;42.02;25.66;97844.94;4961265;28;20426;-84
2021/07/09 09:14:46;;;;;;;13.10;4.32;;;;;;;42.59;25.62;97841.50;4974634;28;20026;-82
2021/07/09 09:17:35;;;;;;;5.33;3.97;;;;;;;43.54;24.17;97850.22;4969505;28;20019;-84
2021/07/09 09:20:06;;;;;;;8.55;3.95;;;;;;;43.11;25.12;97841.63;4979315;28;20277;-84
2021/07/09 09:22:34;;;;;;;;;;;;;;;43.73;24.78;97848.28;4977553;28;20041;-85
2021/07/09 09:25:00;;;;;;;8.82;3.70;;;;;;;44.62;23.38;97841.72;4963972;28;20002;-83
2021/07/09 09:27:26;;;;;;;14.10;4.57;;;;;;;44.80;24.01;97831.53;5004747;28;20085;-84
2021/07/09 09:29:51;;;;;;;9.75;4.38;;;;;;;42.75;26.97;97840.25;4976358;28;20081;-85
2021/07/09 09:32:17;;;;;;;10.45;4.40;;;;;;;43.32;26.14;97842.25;4969334;28;20408;-85
2021/07/09 09:34:47;;;;;;;6.05;4.07;;;;;;;43.61;24.02;97831.81;4980531;28;20383;-83
2021/07/09 09:37:17;;;;;;;18.67;4.82;;;;;;;43.38;23.78;97829.00;4976847;28;20117;-83
2021/07/09 09:39:45;;;;;;;4.97;3.73;;;;;;;44.27;23.23;97830.13;4980179;28;20497;-83
2021/07/09 09:42:19;;;;;;;7.38;4.47;;;;;;;43.33;23.87;97831.81;4976948;28;20281;-83
2021/07/09 09:44:49;;;;;;;5.32;3.72;;;;;;;41.40;26.77;97832.25;4977203;28;20037;-83
2021/07/09 09:47:17;;;;;;;5.57;3.90;;;;;;;43.44;25.39;97842.72;4996653;28;20026;-83
2021/07/09 09:49:45;;;;;;;5.03;3.42;;;;;;;44.54;24.71;97833.97;4980568;28;20337;-84
2021/07/09 09:52:12;;;;;;;5.82;3.85;;;;;;;44.57;23.29;97819.22;4963881;28;20045;-84
2021/07/09 09:54:38;;;;;;;5.47;4.20;;;;;;;44.28;23.55;97817.69;4996236;28;20104;-84
2021/07/09 09:57:06;;;;;;;6.85;4.13;;;;;;;43.95;24.76;97817.56;4995871;28;20604;-85
2021/07/09 09:59:32;;;;;;;6.00;3.80;;;;;;;44.80;24.67;97814.56;4976851;28;20018;-84
2021/07/09 10:02:03;;;;;;;5.03;3.67;;;;;;;45.20;22.91;97815.84;4978116;28;20026;-84
2021/07/09 10:04:30;;;;;;;7.57;3.80;;;;;;;45.41;22.62;97808.69;4976422;28;20072;-84
2021/07/09 10:06:57;;;;;;;6.82;3.72;;;;;;;43.29;24.88;97825.13;4976367;28;20030;-83
2021/07/09 10:09:24;;;;;;;7.13;4.03;;;;;;;44.33;23.42;97806.31;4959845;28;20367;-83
2021/07/09 10:11:50;;;;;;;5.03;4.22;;;;;;;44.47;23.47;97801.56;4975933;28;20056;-84
2021/07/09 10:14:18;;;;;;;5.25;4.30;;;;;;;43.22;25.54;97811.38;4975778;28;20565;-82
2021/07/09 10:16:46;;;;;;;18.02;11.93;;;;;;;42.51;26.35;97803.56;4976104;28;20026;-84
2021/07/09 10:19:19;;;;;;;6.65;4.40;;;;;;;42.87;25.52;97783.53;4959544;28;20049;-83
2021/07/09 10:21:45;;;;;;;5.70;3.90;;;;;;;44.61;23.51;97785.56;4959779;28;20502;-84
2021/07/09 10:24:14;;;;;;;4.63;3.55;;;;;;;44.48;23.91;97781.50;4975922;28;20061;-83
2021/07/09 10:26:51;;;;;;;7.22;4.18;;;;;;;45.74;23.44;97786.81;4975970;28;20030;-84
2021/07/09 10:29:16;;;;;;;13.40;4.05;;;;;;;42.82;25.42;97776.00;4987225;28;20513;-83
2021/07/09 10:31:44;;;;;;;7.20;3.53;;;;;;;45.00;23.19;97765.38;5012771;28;20072;-84
2021/07/09 10:34:26;;;;;;;8.02;3.92;;;;;;;45.00;23.96;97766.22;4994895;28;20481;-84
2021/07/09 10:36:58;;;;;;;5.00;3.83;;;;;;;45.56;22.52;97770.78;4979287;28;20070;-84
2021/07/09 10:39:38;;;;;;;4.57;3.97;;;;;;;46.13;22.78;97767.25;4968500;28;20077;-84
2021/07/09 10:42:30;;;;;;;5.47;3.92;;;;;;;46.78;21.80;97769.63;4978653;28;20042;-83
2021/07/09 10:45:00;;;;;;;7.40;3.70;;;;;;;47.91;20.30;97766.19;4987037;28;20061;-83
2021/07/09 10:47:43;;;;;;;6.15;4.00;;;;;;;46.46;20.41;97747.22;4988002;28;20499;-84
2021/07/09 10:50:12;;;;;;;6.07;3.67;;;;;;;46.27;20.78;97738.91;4993189;28;20033;-83
2021/07/09 10:52:58;;;;;;;3.95;3.65;;;;;;;45.76;21.48;97739.25;4975270;28;20489;-83
2021/07/09 10:55:27;;;;;;;4.15;3.85;;;;;;;45.46;21.87;97739.88;4958910;28;20402;-84
2021/07/09 10:58:08;;;;;;;9.45;4.05;;;;;;;45.33;22.04;97735.91;5000167;28;20107;-84
2021/07/09 11:00:44;;;;;;;8.15;3.45;;;;;;;46.11;20.69;97735.63;4994681;28;20033;-84
2021/07/09 11:03:10;;;;;;;3.63;3.30;;;;;;;46.61;21.21;97735.53;4984790;28;20072;-83
2021/07/09 11:05:51;;;;;;;4.22;3.38;;;;;;;46.51;21.68;97742.28;4968794;28;20038;-84
2021/07/09 11:08:31;;;;;;;4.57;3.08;;;;;;;45.88;22.87;97739.53;4992268;28;20034;-83
2021/07/09 11:11:06;;;;;;;5.15;2.97;;;;;;;46.59;22.28;97740.66;5000229;28;20125;-84
2021/07/09 11:13:46;;;;;;;5.28;3.40;;;;;;;45.74;22.06;97725.44;4965516;28;20083;-84
2021/07/09 11:16:20;;;;;;;3.08;2.80;;;;;;;44.85;23.03;97726.94;4988751;28;20034;-84
2021/07/09 11:19:04;;;;;;;6.35;3.30;;;;;;;46.54;21.95;97727.47;4991536;28;20025;-84
2021/07/09 11:21:29;;;;;;;5.18;2.90;;;;;;;47.39;20.74;97726.28;4984252;28;20157;-85